Time;durP1;ratioP1;P1;durP2;ratioP2;P2;SDS_P1;SDS_P2;PMS_P1;PMS_P2;Temp;Humidity;BMP_temperature;BMP_pressure;BME280_temperature;BME280_humidity;BME280_pressure;Samples;Min_cycle;Max_cycle;Signal;HPM_P1;HPM_P2
2022/11/05 00:10:35;;;;;;;1999.90;999.90;;;5.20;99.90;;;;;;5080742;28;20464;-64
2022/11/05 00:18:30;;;;;;;1999.90;999.90;;;5.30;99.90;;;;;;5082151;28;20147;-64
2022/11/05 00:20:56;;;;;;;1999.90;999.90;;;5.30;99.90;;;;;;5077112;28;20128;-64
2022/11/05 00:26:08;;;;;;;1999.90;999.90;;;5.40;99.90;;;;;;5070347;28;20052;-64
2022/11/05 00:28:34;;;;;;;1999.90;999.90;;;5.40;99.90;;;;;;5080691;28;20048;-64
2022/11/05 00:31:08;;;;;;;1999.90;999.90;;;5.30;99.90;;;;;;5087767;28;20036;-64
2022/11/05 00:33:34;;;;;;;1999.90;999.90;;;5.30;99.90;;;;;;5054760;28;20044;-64
2022/11/05 00:36:01;;;;;;;1999.90;999.90;;;5.30;99.90;;;;;;5067614;28;20049;-64
2022/11/05 00:38:28;;;;;;;1999.90;999.90;;;5.30;99.90;;;;;;5082548;28;20039;-64
2022/11/05 00:40:54;;;;;;;1999.90;999.90;;;5.30;99.90;;;;;;5073891;28;20540;-64
2022/11/05 00:46:04;;;;;;;1999.90;999.90;;;5.30;99.90;;;;;;5080230;28;20155;-64
2022/11/05 00:51:14;;;;;;;1999.90;999.90;;;5.40;99.90;;;;;;5079865;28;20053;-64
2022/11/05 00:53:39;;;;;;;1999.90;999.90;;;5.40;99.90;;;;;;5081463;28;20055;-64
2022/11/05 00:56:05;;;;;;;1999.90;999.90;;;5.50;99.90;;;;;;5081539;28;20376;-64
2022/11/05 00:58:31;;;;;;;1999.90;999.90;;;5.50;99.90;;;;;;5077705;28;20203;-64
2022/11/05 01:00:57;;;;;;;1999.90;999.90;;;5.50;99.90;;;;;;5069671;28;20051;-64
2022/11/05 01:03:26;;;;;;;1999.90;999.90;;;5.50;99.90;;;;;;5081173;28;20161;-64
2022/11/05 01:05:57;;;;;;;1999.90;999.90;;;5.60;99.90;;;;;;5078793;28;20054;-64
2022/11/05 01:08:25;;;;;;;1999.90;999.90;;;5.60;99.90;;;;;;5083578;28;20057;-64
2022/11/05 01:10:56;;;;;;;1999.90;999.90;;;5.60;99.90;;;;;;5086248;28;20104;-64
2022/11/05 01:13:28;;;;;;;1999.90;999.90;;;5.70;99.90;;;;;;5087663;28;20051;-64
2022/11/05 01:15:55;;;;;;;1999.90;999.90;;;5.70;99.90;;;;;;5086170;28;20048;-64
2022/11/05 01:18:22;;;;;;;1999.90;999.90;;;5.70;99.90;;;;;;5080741;28;20041;-64
2022/11/05 01:20:48;;;;;;;1999.90;999.90;;;5.70;99.90;;;;;;5076725;28;20063;-64
2022/11/05 01:23:14;;;;;;;1999.90;999.90;;;5.70;99.90;;;;;;5078497;28;20073;-64
2022/11/05 01:25:41;;;;;;;1999.90;999.90;;;5.70;99.90;;;;;;5080570;28;20044;-64
2022/11/05 01:28:08;;;;;;;1999.90;999.90;;;5.60;99.90;;;;;;5087867;28;20096;-64
2022/11/05 01:30:34;;;;;;;1999.90;999.90;;;5.50;99.90;;;;;;5089727;28;20480;-64
2022/11/05 01:33:02;;;;;;;1999.90;999.90;;;5.50;99.90;;;;;;5085538;28;20047;-64
2022/11/05 01:35:28;;;;;;;1999.90;999.90;;;5.40;99.90;;;;;;5087314;28;20042;-64
2022/11/05 01:37:53;;;;;;;1999.90;999.90;;;5.40;99.90;;;;;;5081137;28;20045;-64
2022/11/05 01:40:21;;;;;;;1999.90;999.90;;;5.40;99.90;;;;;;5074176;28;20049;-64
2022/11/05 01:42:47;;;;;;;1999.90;999.90;;;5.40;99.90;;;;;;5089218;28;20040;-64
2022/11/05 01:45:26;;;;;;;1999.90;999.90;;;5.40;99.90;;;;;;5075221;28;20494;-64
2022/11/05 01:48:01;;;;;;;1999.90;999.90;;;5.40;99.90;;;;;;5083315;28;20121;-64
2022/11/05 01:50:35;;;;;;;1999.90;999.90;;;5.40;99.90;;;;;;5080216;28;20088;-64
2022/11/05 01:53:17;;;;;;;1999.90;999.90;;;5.30;99.90;;;;;;5087854;28;20047;-64
2022/11/05 01:55:50;;;;;;;1999.90;999.90;;;5.30;99.90;;;;;;5082455;28;20036;-64
2022/11/05 01:58:20;;;;;;;1999.90;999.90;;;5.30;99.90;;;;;;5074819;28;20503;-64
2022/11/05 02:00:46;;;;;;;1999.90;999.90;;;5.30;99.90;;;;;;5086725;28;20036;-64
2022/11/05 02:03:14;;;;;;;1999.90;999.90;;;5.30;99.90;;;;;;5076140;28;20090;-64
2022/11/05 02:05:40;;;;;;;1999.90;999.90;;;5.30;99.90;;;;;;5068395;28;20091;-64
2022/11/05 02:08:12;;;;;;;1999.90;999.90;;;5.30;99.90;;;;;;5071430;28;20102;-64
2022/11/05 02:10:38;;;;;;;1999.90;999.90;;;5.30;99.90;;;;;;5066648;28;20094;-64
2022/11/05 02:13:04;;;;;;;1999.90;999.90;;;5.30;99.90;;;;;;5079857;28;20044;-64
2022/11/05 02:15:53;;;;;;;1999.90;999.90;;;5.30;99.90;;;;;;5086731;28;20040;-64
2022/11/05 02:18:23;;;;;;;1999.90;999.90;;;5.30;99.90;;;;;;5080067;28;20549;-64
2022/11/05 02:21:12;;;;;;;1999.90;999.90;;;5.40;99.90;;;;;;5084337;28;20166;-64
2022/11/05 02:24:06;;;;;;;1999.90;999.90;;;5.40;99.90;;;;;;5084652;28;20040;-64
2022/11/05 02:26:58;;;;;;;1999.90;999.90;;;5.40;99.90;;;;;;5072959;28;20040;-64
2022/11/05 02:29:54;;;;;;;1999.90;999.90;;;5.40;99.90;;;;;;5084905;28;20118;-64
2022/11/05 02:32:38;;;;;;;1999.90;999.90;;;5.40;99.90;;;;;;5080983;28;20770;-64
2022/11/05 02:35:31;;;;;;;1999.90;999.90;;;5.40;99.90;;;;;;5085122;28;20052;-64
2022/11/05 02:38:33;;;;;;;1999.90;999.90;;;5.40;99.90;;;;;;5059384;28;20400;-64
2022/11/05 02:41:21;;;;;;;1999.90;999.90;;;5.40;99.90;;;;;;5071976;28;20059;-64
2022/11/05 02:44:18;;;;;;;1999.90;999.90;;;5.40;99.90;;;;;;5078595;28;20047;-64
2022/11/05 02:46:48;;;;;;;1999.90;999.90;;;5.40;99.90;;;;;;5037989;28;20411;-64
2022/11/05 02:49:42;;;;;;;1999.90;999.90;;;5.40;99.90;;;;;;5068844;28;20063;-64
2022/11/05 02:52:26;;;;;;;1999.90;999.90;;;5.40;99.90;;;;;;5070027;28;20143;-64
2022/11/05 02:55:12;;;;;;;1999.90;999.90;;;5.40;99.90;;;;;;5078091;28;20503;-64
2022/11/05 02:57:44;;;;;;;1999.90;999.90;;;5.40;99.90;;;;;;5074320;28;20036;-64
2022/11/05 03:00:55;;;;;;;1999.90;999.90;;;5.40;99.90;;;;;;5067594;28;20043;-64
2022/11/05 03:03:52;;;;;;;1999.90;999.90;;;5.40;99.90;;;;;;5080114;28;20297;-64
2022/11/05 03:06:39;;;;;;;1999.90;999.90;;;5.40;99.90;;;;;;5020246;28;20053;-64
2022/11/05 03:09:10;;;;;;;1999.90;999.90;;;5.40;99.90;;;;;;5022899;28;20045;-64
2022/11/05 03:11:57;;;;;;;1999.90;999.90;;;5.40;99.90;;;;;;5022661;28;20045;-63
2022/11/05 03:15:00;;;;;;;1999.90;999.90;;;5.30;99.90;;;;;;5011788;28;20129;-64
2022/11/05 03:17:52;;;;;;;1999.90;999.90;;;5.40;99.90;;;;;;5023706;28;20059;-64
2022/11/05 03:20:49;;;;;;;1999.90;999.90;;;5.40;99.90;;;;;;5022047;28;20077;-64
2022/11/05 03:23:42;;;;;;;1999.90;999.90;;;5.30;99.90;;;;;;5025019;28;20088;-64
2022/11/05 03:26:26;;;;;;;1999.90;999.90;;;5.30;99.90;;;;;;5022558;28;20041;-64
2022/11/05 03:29:00;;;;;;;1999.90;999.90;;;5.20;99.90;;;;;;5022575;28;20049;-64
2022/11/05 03:31:29;;;;;;;1999.90;999.90;;;5.30;99.90;;;;;;5025583;28;20430;-64
2022/11/05 03:33:56;;;;;;;1999.90;999.90;;;5.30;99.90;;;;;;5001188;28;20476;-64
2022/11/05 03:36:40;;;;;;;1999.90;999.90;;;5.30;99.90;;;;;;5008408;28;20053;-64
2022/11/05 03:39:10;;;;;;;1999.90;999.90;;;5.40;99.90;;;;;;5000020;28;20045;-64
2022/11/05 03:41:42;;;;;;;1999.90;999.90;;;5.50;99.90;;;;;;5023136;28;20065;-64
2022/11/05 03:44:11;;;;;;;1999.90;999.90;;;5.50;99.90;;;;;;5080483;28;20053;-64
2022/11/05 03:46:44;;;;;;;1999.90;999.90;;;5.50;99.90;;;;;;5080873;28;20104;-64
2022/11/05 03:49:14;;;;;;;1999.90;999.90;;;5.50;99.90;;;;;;5080501;28;20097;-64
2022/11/05 03:52:11;;;;;;;1999.90;999.90;;;5.50;99.90;;;;;;5079076;28;20071;-64
2022/11/05 03:54:37;;;;;;;1999.90;999.90;;;5.50;99.90;;;;;;5079721;28;20052;-64
2022/11/05 03:57:09;;;;;;;1999.90;999.90;;;5.50;99.90;;;;;;5095700;28;20484;-64
2022/11/05 03:59:41;;;;;;;1999.90;999.90;;;5.60;99.90;;;;;;5081365;28;20549;-64
2022/11/05 04:02:12;;;;;;;1999.90;999.90;;;5.60;99.90;;;;;;5079542;28;20083;-64
2022/11/05 04:04:38;;;;;;;1999.90;999.90;;;5.60;99.90;;;;;;5069206;28;20507;-64
2022/11/05 04:15:16;;;;;;;1999.90;999.90;;;5.60;99.90;;;;;;5075744;28;20043;-64
2022/11/05 04:17:42;;;;;;;1999.90;999.90;;;5.70;99.90;;;;;;5079165;28;20039;-64
2022/11/05 04:25:48;;;;;;;1999.90;999.90;;;5.80;99.90;;;;;;5082758;28;20503;-64
2022/11/05 04:28:14;;;;;;;1999.90;999.90;;;5.80;99.90;;;;;;5094610;28;20058;-64
2022/11/05 04:30:40;;;;;;;1999.90;999.90;;;5.80;99.90;;;;;;5084056;28;20051;-64
2022/11/05 04:33:11;;;;;;;1999.90;999.90;;;5.80;99.90;;;;;;5076136;28;20044;-64
2022/11/05 04:35:42;;;;;;;1999.90;999.90;;;5.70;99.90;;;;;;5084215;28;20036;-64
2022/11/05 04:38:16;;;;;;;1999.90;999.90;;;5.70;99.90;;;;;;5080181;28;20091;-64
2022/11/05 04:40:42;;;;;;;1999.90;999.90;;;5.70;99.90;;;;;;5080141;28;20037;-64
2022/11/05 04:43:12;;;;;;;1999.90;999.90;;;5.70;99.90;;;;;;5078787;28;20048;-64
2022/11/05 04:45:38;;;;;;;1999.90;999.90;;;5.70;99.90;;;;;;5079268;28;20862;-64
2022/11/05 04:48:04;;;;;;;1999.90;999.90;;;5.70;99.90;;;;;;5081454;28;20090;-64
2022/11/05 04:50:30;;;;;;;1999.90;999.90;;;5.70;99.90;;;;;;5086416;28;20039;-64
2022/11/05 04:52:56;;;;;;;1999.90;999.90;;;5.80;99.90;;;;;;5087707;28;20489;-64
2022/11/05 04:55:22;;;;;;;1999.90;999.90;;;5.80;99.90;;;;;;5086325;28;20040;-64
2022/11/05 04:57:48;;;;;;;1999.90;999.90;;;5.80;99.90;;;;;;5078112;28;20037;-64
2022/11/05 05:00:14;;;;;;;1999.90;999.90;;;5.70;99.90;;;;;;5080762;28;20040;-64
2022/11/05 05:02:40;;;;;;;1999.90;999.90;;;5.70;99.90;;;;;;5083790;28;20056;-64
2022/11/05 05:05:06;;;;;;;1999.90;999.90;;;5.70;99.90;;;;;;5084612;28;20044;-64
2022/11/05 05:07:34;;;;;;;1999.90;999.90;;;5.80;99.90;;;;;;5083869;28;20043;-64
2022/11/05 05:10:01;;;;;;;1999.90;999.90;;;5.80;99.90;;;;;;5080935;28;20115;-64
2022/11/05 05:12:27;;;;;;;1999.90;999.90;;;5.80;99.90;;;;;;5082648;28;20040;-64
2022/11/05 05:14:53;;;;;;;1999.90;999.90;;;5.80;99.90;;;;;;5078670;28;20047;-64
2022/11/05 05:17:19;;;;;;;1999.90;999.90;;;5.80;99.90;;;;;;5081222;28;20067;-64
2022/11/05 05:22:29;;;;;;;1999.90;999.90;;;5.90;99.90;;;;;;5083218;28;20097;-64
2022/11/05 05:24:58;;;;;;;1999.90;999.90;;;5.90;99.90;;;;;;5084380;28;20169;-64
2022/11/05 05:27:28;;;;;;;1999.90;999.90;;;5.90;99.90;;;;;;5079533;28;20039;-64
2022/11/05 05:29:54;;;;;;;1999.90;999.90;;;5.90;99.90;;;;;;5071079;28;20048;-64
2022/11/05 05:32:20;;;;;;;1999.90;999.90;;;5.90;99.90;;;;;;5085786;28;20040;-64
2022/11/05 05:34:45;;;;;;;1999.90;999.90;;;5.80;99.90;;;;;;5104768;28;20089;-64
2022/11/05 05:37:11;;;;;;;1999.90;999.90;;;5.80;99.90;;;;;;5077589;28;20047;-64
2022/11/05 05:39:37;;;;;;;1999.90;999.90;;;5.80;99.90;;;;;;5056529;28;20105;-64
2022/11/05 05:42:02;;;;;;;1999.90;999.90;;;5.80;99.90;;;;;;5082953;28;20459;-64
2022/11/05 05:44:28;;;;;;;1999.90;999.90;;;5.80;99.90;;;;;;5086946;28;20121;-64
2022/11/05 05:46:54;;;;;;;1999.90;999.90;;;5.70;99.90;;;;;;5093664;28;20060;-64
2022/11/05 05:49:20;;;;;;;1999.90;999.90;;;5.70;99.90;;;;;;5084519;28;20040;-64
2022/11/05 05:51:47;;;;;;;1999.90;999.90;;;5.80;99.90;;;;;;5074516;28;20462;-64
2022/11/05 05:54:13;;;;;;;1999.90;999.90;;;5.80;99.90;;;;;;5065596;28;20051;-64
2022/11/05 05:56:38;;;;;;;1999.90;999.90;;;5.80;99.90;;;;;;5080237;28;20044;-64
2022/11/05 05:59:05;;;;;;;1999.90;999.90;;;5.80;99.90;;;;;;5079506;28;20446;-64
2022/11/05 06:01:30;;;;;;;1999.90;999.90;;;5.80;99.90;;;;;;5080070;28;20150;-64
2022/11/05 06:03:56;;;;;;;1999.90;999.90;;;5.90;99.90;;;;;;5082944;28;20127;-64
2022/11/05 06:06:21;;;;;;;1999.90;999.90;;;5.90;99.90;;;;;;5076096;28;20121;-64
2022/11/05 06:08:47;;;;;;;1999.90;999.90;;;6.00;99.90;;;;;;5076768;28;20060;-64
2022/11/05 06:11:13;;;;;;;1999.90;999.90;;;6.00;99.90;;;;;;5077955;28;20044;-64
2022/11/05 06:13:39;;;;;;;1999.90;999.90;;;6.00;99.90;;;;;;5074875;28;20051;-64
2022/11/05 06:16:06;;;;;;;1999.90;999.90;;;5.90;99.90;;;;;;5082590;28;20036;-64
2022/11/05 06:18:33;;;;;;;1999.90;999.90;;;5.90;99.90;;;;;;5070390;28;20032;-63
2022/11/05 06:21:06;;;;;;;1999.90;999.90;;;5.80;99.90;;;;;;5071403;28;20500;-64
2022/11/05 06:23:33;;;;;;;1999.90;999.90;;;5.80;99.90;;;;;;5079580;28;20059;-64
2022/11/05 06:26:03;;;;;;;1999.90;999.90;;;5.70;99.90;;;;;;5079239;28;20039;-64
2022/11/05 06:28:29;;;;;;;1999.90;999.90;;;5.70;99.90;;;;;;5079458;28;20047;-64
2022/11/05 06:30:55;;;;;;;1999.90;999.90;;;5.70;99.90;;;;;;5074423;28;20054;-64
2022/11/05 06:33:21;;;;;;;1999.90;999.90;;;5.60;99.90;;;;;;5074349;28;20047;-64
2022/11/05 06:35:47;;;;;;;1999.90;999.90;;;5.60;99.90;;;;;;5087431;28;20028;-64
2022/11/05 06:38:12;;;;;;;1999.90;999.90;;;5.60;99.90;;;;;;5077485;28;20032;-64
2022/11/05 06:40:38;;;;;;;1999.90;999.90;;;5.60;99.90;;;;;;5055999;28;20036;-64
2022/11/05 06:43:04;;;;;;;1999.90;999.90;;;5.60;99.90;;;;;;5086509;28;20036;-64
2022/11/05 06:45:29;;;;;;;1999.90;999.90;;;5.60;99.90;;;;;;5080761;28;20036;-63
2022/11/05 06:47:56;;;;;;;1999.90;999.90;;;5.60;99.90;;;;;;5079956;28;20215;-64
2022/11/05 06:50:22;;;;;;;1999.90;999.90;;;5.60;99.90;;;;;;5079733;28;20076;-64
2022/11/05 06:53:00;;;;;;;1999.90;999.90;;;5.60;99.90;;;;;;5085862;28;20487;-64
2022/11/05 06:55:28;;;;;;;1999.90;999.90;;;5.60;99.90;;;;;;5078429;28;20039;-64
2022/11/05 06:57:54;;;;;;;1999.90;999.90;;;5.60;99.90;;;;;;5067881;28;20040;-64
2022/11/05 07:00:20;;;;;;;1999.90;999.90;;;5.60;99.90;;;;;;5089450;28;20074;-64
2022/11/05 07:02:46;;;;;;;1999.90;999.90;;;5.60;99.90;;;;;;5088474;28;20093;-64
2022/11/05 07:05:12;;;;;;;1999.90;999.90;;;5.60;99.90;;;;;;5077243;28;20051;-64
2022/11/05 07:07:39;;;;;;;1999.90;999.90;;;5.60;99.90;;;;;;5088063;28;20036;-64
2022/11/05 07:10:06;;;;;;;1999.90;999.90;;;5.60;99.90;;;;;;5087108;28;20467;-64
2022/11/05 07:12:32;;;;;;;1999.90;999.90;;;5.60;99.90;;;;;;5082509;28;20519;-64
2022/11/05 07:14:58;;;;;;;1999.90;999.90;;;5.60;99.90;;;;;;5075630;28;20043;-64
2022/11/05 07:17:23;;;;;;;1999.90;999.90;;;5.60;99.90;;;;;;5067082;28;20050;-63
2022/11/05 07:19:49;;;;;;;1999.90;999.90;;;5.70;99.90;;;;;;5087512;28;20051;-64
2022/11/05 07:22:14;;;;;;;1999.90;999.90;;;5.70;99.90;;;;;;5087231;28;20107;-64
2022/11/05 07:24:40;;;;;;;1999.90;999.90;;;5.80;99.90;;;;;;5087092;28;20472;-64
2022/11/05 07:27:05;;;;;;;1999.90;999.90;;;5.80;99.90;;;;;;5073802;28;20480;-64
2022/11/05 07:29:31;;;;;;;1999.90;999.90;;;5.90;99.90;;;;;;5094496;28;20506;-64
2022/11/05 07:31:56;;;;;;;1999.90;999.90;;;6.00;99.90;;;;;;5085684;28;20044;-63
2022/11/05 07:34:22;;;;;;;1999.90;999.90;;;6.10;99.90;;;;;;5077822;28;20071;-64
2022/11/05 07:36:47;;;;;;;1999.90;999.90;;;6.10;99.90;;;;;;5087994;28;20055;-64
2022/11/05 07:39:13;;;;;;;1999.90;999.90;;;6.20;99.90;;;;;;5078715;28;20044;-64
2022/11/05 07:41:38;;;;;;;1999.90;999.90;;;6.30;99.90;;;;;;5081102;28;20119;-64
2022/11/05 07:44:04;;;;;;;1999.90;999.90;;;6.30;99.90;;;;;;5075129;28;20090;-64
2022/11/05 07:46:30;;;;;;;1999.90;999.90;;;6.40;99.90;;;;;;5087019;28;20513;-64
2022/11/05 07:48:55;;;;;;;1999.90;999.90;;;6.50;99.90;;;;;;5063700;28;20048;-64
2022/11/05 07:51:21;;;;;;;1999.90;999.90;;;6.50;99.90;;;;;;5081403;28;20058;-64
2022/11/05 07:53:47;;;;;;;1999.90;999.90;;;6.60;99.90;;;;;;5087546;28;20040;-64
2022/11/05 07:56:13;;;;;;;1999.90;999.90;;;6.60;99.90;;;;;;5069041;28;20075;-64
2022/11/05 07:58:39;;;;;;;1999.90;999.90;;;6.70;99.90;;;;;;5067300;28;20043;-64
2022/11/05 08:01:05;;;;;;;1999.90;999.90;;;6.80;99.90;;;;;;5093353;28;20040;-64
2022/11/05 08:03:32;;;;;;;1999.90;999.90;;;7.00;99.90;;;;;;5084880;28;20086;-64
2022/11/05 08:05:57;;;;;;;1999.90;999.90;;;7.20;99.90;;;;;;5069914;28;20082;-64
2022/11/05 08:08:23;;;;;;;1999.90;999.90;;;7.40;99.90;;;;;;5080794;28;20048;-64
2022/11/05 08:10:49;;;;;;;1999.90;999.90;;;7.70;99.90;;;;;;5083819;28;20048;-64
2022/11/05 08:13:15;;;;;;;1999.90;999.90;;;8.00;99.90;;;;;;5082956;28;20083;-64
2022/11/05 08:15:42;;;;;;;1999.90;999.90;;;8.30;99.90;;;;;;5085797;28;20055;-64
2022/11/05 08:18:16;;;;;;;1999.90;999.90;;;8.70;99.90;;;;;;5086687;28;20032;-64
2022/11/05 08:20:43;;;;;;;1999.90;999.90;;;9.00;99.90;;;;;;5084036;28;20052;-64
2022/11/05 08:23:09;;;;;;;1999.90;999.90;;;9.50;99.90;;;;;;5074212;28;20055;-64
2022/11/05 08:25:35;;;;;;;1999.90;999.90;;;9.80;99.90;;;;;;5081848;28;20510;-64
2022/11/05 08:28:11;;;;;;;1999.90;999.90;;;10.30;99.90;;;;;;5097988;28;20048;-64
2022/11/05 08:30:37;;;;;;;1999.90;999.90;;;10.60;99.90;;;;;;5060760;28;20054;-64
2022/11/05 08:33:10;;;;;;;1999.90;999.90;;;10.70;99.90;;;;;;5081270;28;20069;-64
2022/11/05 08:35:36;;;;;;;1999.90;999.90;;;11.20;99.90;;;;;;5082434;28;20040;-64
2022/11/05 08:38:04;;;;;;;1999.90;999.90;;;11.50;99.90;;;;;;5086298;28;20048;-64
2022/11/05 08:40:32;;;;;;;1999.90;999.90;;;11.80;99.90;;;;;;5077155;28;20369;-65
2022/11/05 08:42:59;;;;;;;1999.90;999.90;;;12.00;99.90;;;;;;5070437;28;20045;-64
2022/11/05 08:45:25;;;;;;;1999.90;999.90;;;12.30;99.90;;;;;;5083653;28;20054;-65
2022/11/05 08:48:01;;;;;;;1999.90;999.90;;;12.60;99.90;;;;;;5083143;28;20519;-64
2022/11/05 08:50:27;;;;;;;1999.90;999.90;;;12.80;99.90;;;;;;5086244;28;20087;-64
2022/11/05 08:52:53;;;;;;;1999.90;999.90;;;12.90;99.90;;;;;;5055725;28;20067;-65
2022/11/05 08:55:18;;;;;;;1999.90;999.90;;;12.90;99.90;;;;;;5083025;28;20044;-64
2022/11/05 08:57:47;;;;;;;1999.90;999.90;;;13.10;99.90;;;;;;5097049;28;20048;-64
2022/11/05 09:00:14;;;;;;;1999.90;999.90;;;13.10;99.90;;;;;;5081087;28;20031;-65
2022/11/05 09:02:39;;;;;;;1999.90;999.90;;;13.30;99.90;;;;;;5090940;28;20429;-65
2022/11/05 09:05:06;;;;;;;1999.90;999.90;;;13.50;99.90;;;;;;5061068;28;20113;-65
2022/11/05 09:07:31;;;;;;;1999.90;999.90;;;13.80;99.90;;;;;;5086902;28;20071;-64
2022/11/05 09:09:57;;;;;;;1999.90;999.90;;;13.80;99.90;;;;;;5082938;28;20400;-65
2022/11/05 09:12:22;;;;;;;1999.90;999.90;;;13.60;99.90;;;;;;5083255;28;20157;-65
2022/11/05 09:14:48;;;;;;;1999.90;999.90;;;13.70;99.90;;;;;;5084185;28;20051;-65
2022/11/05 09:17:19;;;;;;;1999.90;999.90;;;13.50;99.90;;;;;;5081470;28;20048;-65
2022/11/05 09:19:45;;;;;;;1999.90;999.90;;;13.10;99.90;;;;;;5079454;28;20048;-64
2022/11/05 09:22:11;;;;;;;1999.90;999.90;;;12.70;99.90;;;;;;5079728;28;20050;-65
2022/11/05 09:24:41;;;;;;;1999.90;999.90;;;12.40;99.90;;;;;;5083904;28;20078;-65
2022/11/05 09:27:12;;;;;;;1999.90;999.90;;;12.30;99.90;;;;;;5075531;28;20946;-64
2022/11/05 09:29:38;;;;;;;1999.90;999.90;;;12.10;99.90;;;;;;5084240;28;20050;-65
2022/11/05 09:32:04;;;;;;;1999.90;999.90;;;11.90;99.90;;;;;;5086250;28;20039;-65
2022/11/05 09:34:30;;;;;;;1999.90;999.90;;;11.80;99.90;;;;;;5093382;28;20412;-65
2022/11/05 09:36:56;;;;;;;1999.90;999.90;;;11.80;99.90;;;;;;5090815;28;20373;-65
2022/11/05 09:39:22;;;;;;;1999.90;999.90;;;11.90;99.90;;;;;;5081914;28;20040;-64
2022/11/05 09:41:48;;;;;;;1999.90;999.90;;;12.00;99.90;;;;;;5090127;28;20492;-64
2022/11/05 09:44:32;;;;;;;1999.90;999.90;;;12.00;99.90;;;;;;5087158;28;20036;-65
2022/11/05 09:47:03;;;;;;;1999.90;999.90;;;11.90;99.90;;;;;;5075656;28;20049;-65
2022/11/05 09:49:38;;;;;;;1999.90;999.90;;;12.00;99.90;;;;;;5084671;28;20075;-65
2022/11/05 09:52:09;;;;;;;1999.90;999.90;;;12.20;99.90;;;;;;5072596;28;20565;-64
2022/11/05 09:54:34;;;;;;;1999.90;999.90;;;12.50;99.90;;;;;;5086741;28;20048;-65
2022/11/05 09:57:01;;;;;;;1999.90;999.90;;;12.70;99.90;;;;;;5079313;28;20082;-65
2022/11/05 09:59:35;;;;;;;1999.90;999.90;;;12.80;99.90;;;;;;5086189;28;20048;-65
2022/11/05 10:02:19;;;;;;;1999.90;999.90;;;13.00;99.90;;;;;;5089815;28;20119;-65
2022/11/05 10:04:48;;;;;;;1999.90;999.90;;;13.30;99.90;;;;;;5079760;28;20112;-65
2022/11/05 10:07:19;;;;;;;1999.90;999.90;;;13.50;99.90;;;;;;5087981;28;20075;-65
2022/11/05 10:09:47;;;;;;;1999.90;999.90;;;13.60;99.90;;;;;;5081795;28;20083;-65
2022/11/05 10:12:24;;;;;;;1999.90;999.90;;;13.70;99.90;;;;;;5082777;28;20123;-65
2022/11/05 10:15:10;;;;;;;1999.90;999.90;;;13.70;99.90;;;;;;5083373;28;20047;-65
2022/11/05 10:17:39;;;;;;;1999.90;999.90;;;13.80;99.90;;;;;;5043435;28;20044;-65
2022/11/05 10:20:17;;;;;;;1999.90;999.90;;;13.80;99.90;;;;;;5086213;28;20461;-65
2022/11/05 10:22:42;;;;;;;1999.90;999.90;;;14.00;99.90;;;;;;5084287;28;20036;-65
2022/11/05 10:25:17;;;;;;;1999.90;999.90;;;14.10;99.90;;;;;;5076902;28;20044;-65
2022/11/05 10:27:49;;;;;;;1999.90;999.90;;;14.10;99.90;;;;;;5085841;28;20189;-66
2022/11/05 10:30:14;;;;;;;1999.90;999.90;;;14.20;99.90;;;;;;5083579;28;20040;-65
2022/11/05 10:32:42;;;;;;;1999.90;999.90;;;14.20;99.90;;;;;;5087387;28;20044;-66
2022/11/05 10:35:13;;;;;;;1999.90;999.90;;;14.20;99.90;;;;;;5081056;28;20750;-66
2022/11/05 10:37:40;;;;;;;1999.90;999.90;;;14.20;99.90;;;;;;5078656;28;20036;-65
2022/11/05 10:40:45;;;;;;;1999.90;999.90;;;14.10;99.90;;;;;;5083836;28;20455;-65
2022/11/05 10:43:11;;;;;;;1999.90;999.90;;;14.00;99.90;;;;;;5059526;28;20129;-65
2022/11/05 10:45:51;;;;;;;1999.90;999.90;;;13.90;99.90;;;;;;5077437;28;20036;-65
2022/11/05 10:48:49;;;;;;;1999.90;999.90;;;13.80;99.90;;;;;;5080122;28;20087;-65
2022/11/05 10:51:16;;;;;;;1999.90;999.90;;;13.80;99.90;;;;;;5075916;28;20052;-66
2022/11/05 10:53:54;;;;;;;1999.90;999.90;;;13.80;99.90;;;;;;5087598;28;20396;-65
2022/11/05 10:56:39;;;;;;;1999.90;999.90;;;13.70;99.90;;;;;;5083334;28;20102;-65
2022/11/05 10:59:25;;;;;;;1999.90;999.90;;;13.70;99.90;;;;;;5079609;28;20052;-66
2022/11/05 11:02:01;;;;;;;1999.90;999.90;;;13.80;99.90;;;;;;5087566;28;20050;-65
2022/11/05 11:04:29;;;;;;;1999.90;999.90;;;13.80;99.90;;;;;;5084847;28;20077;-65
2022/11/05 11:06:57;;;;;;;1999.90;999.90;;;13.70;99.90;;;;;;5080404;28;20044;-65
2022/11/05 11:09:29;;;;;;;1999.90;999.90;;;13.60;99.90;;;;;;5081152;28;20376;-65
2022/11/05 11:12:06;;;;;;;1999.90;999.90;;;13.50;99.90;;;;;;5086807;28;20071;-65
2022/11/05 11:14:33;;;;;;;1999.90;999.90;;;13.60;99.90;;;;;;5086714;28;20309;-66
2022/11/05 11:17:26;;;;;;;1999.90;999.90;;;13.70;99.90;;;;;;5085358;28;20037;-66
2022/11/05 11:20:15;;;;;;;1999.90;999.90;;;13.80;99.90;;;;;;5080271;28;20051;-65
2022/11/05 11:22:40;;;;;;;1999.90;999.90;;;14.00;99.90;;;;;;5077912;28;20040;-65
2022/11/05 11:25:35;;;;;;;1999.90;999.90;;;14.00;99.90;;;;;;5079577;28;20480;-65
2022/11/05 11:28:04;;;;;;;1999.90;999.90;;;14.20;99.90;;;;;;5083632;28;20056;-65
2022/11/05 11:30:30;;;;;;;1999.90;999.90;;;14.30;99.90;;;;;;5066123;28;20404;-65
2022/11/05 11:33:20;;;;;;;1999.90;999.90;;;14.50;99.90;;;;;;5072534;28;20079;-65
2022/11/05 11:35:45;;;;;;;1999.90;999.90;;;14.50;99.90;;;;;;5066725;28;20032;-65
2022/11/05 11:38:14;;;;;;;1999.90;999.90;;;14.30;99.90;;;;;;5078843;28;20551;-65
2022/11/05 11:40:40;;;;;;;1999.90;999.90;;;14.20;99.90;;;;;;5081381;28;20079;-65
2022/11/05 11:43:28;;;;;;;1999.90;999.90;;;14.10;99.90;;;;;;5077833;28;20117;-65
2022/11/05 11:45:55;;;;;;;1999.90;999.90;;;13.90;99.90;;;;;;5080663;28;20085;-65
2022/11/05 11:48:29;;;;;;;1999.90;999.90;;;13.70;99.90;;;;;;5080489;28;20055;-65
2022/11/05 11:50:56;;;;;;;1999.90;999.90;;;13.50;99.90;;;;;;5074630;28;20098;-66
2022/11/05 11:53:34;;;;;;;1999.90;999.90;;;13.30;99.90;;;;;;5076623;28;20044;-65
2022/11/05 11:56:02;;;;;;;1999.90;999.90;;;13.20;99.90;;;;;;5081304;28;20044;-65
2022/11/05 11:58:50;;;;;;;1999.90;999.90;;;13.10;99.90;;;;;;5084170;28;20033;-65
2022/11/05 12:01:42;;;;;;;1999.90;999.90;;;12.90;99.90;;;;;;5074804;28;20044;-65
2022/11/05 12:04:17;;;;;;;1999.90;999.90;;;12.80;99.90;;;;;;5080654;28;20048;-65
2022/11/05 12:07:23;;;;;;;1999.90;999.90;;;12.60;99.90;;;;;;5085838;28;21194;-65
2022/11/05 12:10:17;;;;;;;1999.90;999.90;;;12.40;99.90;;;;;;5068540;28;20392;-65
2022/11/05 12:12:48;;;;;;;;;;;12.30;99.90;;;;;;5079296;28;20484;-65
2022/11/05 12:15:28;;;;;;;1999.90;999.90;;;12.10;99.90;;;;;;5082836;28;19935;-65
2022/11/05 12:18:02;;;;;;;1999.90;999.90;;;12.00;99.90;;;;;;5067029;28;20074;-65
2022/11/05 12:20:42;;;;;;;1999.90;999.90;;;12.00;99.90;;;;;;5078247;28;20094;-65
2022/11/05 12:23:15;;;;;;;1999.90;999.90;;;11.90;99.90;;;;;;5072531;28;20392;-65
2022/11/05 12:25:59;;;;;;;1999.90;999.90;;;11.90;99.90;;;;;;5081652;28;20040;-65
2022/11/05 12:28:37;;;;;;;1999.90;999.90;;;11.90;99.90;;;;;;5071984;28;20051;-65
2022/11/05 12:31:40;;;;;;;1999.90;999.90;;;11.90;99.90;;;;;;5080886;28;20043;-65
2022/11/05 12:34:33;;;;;;;1999.90;999.90;;;12.00;99.90;;;;;;5082454;28;20052;-65
2022/11/05 12:37:27;;;;;;;1999.90;999.90;;;12.00;99.90;;;;;;5077457;28;20047;-65
2022/11/05 12:40:16;;;;;;;;;;;12.00;99.90;;;;;;5081199;28;20044;-65
2022/11/05 12:42:53;;;;;;;1999.90;999.90;;;12.00;99.90;;;;;;5038781;28;19924;-65
2022/11/05 12:45:36;;;;;;;1999.90;999.90;;;11.90;99.90;;;;;;5076302;28;20048;-65
2022/11/05 12:48:29;;;;;;;1999.90;999.90;;;11.80;99.90;;;;;;5088917;28;20063;-64
2022/11/05 12:51:01;;;;;;;;;;;11.70;99.90;;;;;;5071550;28;20036;-65
2022/11/05 12:53:32;;;;;;;1999.90;999.90;;;11.70;99.90;;;;;;5081674;28;19971;-65
2022/11/05 12:56:01;;;;;;;1999.90;999.90;;;11.60;99.90;;;;;;5081718;28;20036;-65
2022/11/05 12:58:32;;;;;;;1999.90;999.90;;;11.50;99.90;;;;;;5076060;28;20047;-65
2022/11/05 13:01:08;;;;;;;1999.90;999.90;;;11.30;99.90;;;;;;5061785;28;20036;-65
2022/11/05 13:03:50;;;;;;;1999.90;999.90;;;11.20;99.90;;;;;;5080522;28;20040;-65
2022/11/05 13:06:20;;;;;;;1999.90;999.90;;;11.20;99.90;;;;;;5083449;28;20063;-64
2022/11/05 13:08:53;;;;;;;1999.90;999.90;;;11.20;99.90;;;;;;5072006;28;20048;-65